Relevés stations proches


LFBH - La Rochelle, Charente Maritime
Mise à jour: 23/06/2018 02:00
Clair
Clair
 Wind from ENE
Vent: ENE 15 km/h
Température: 12°C
Point de rosée: 8°C
Humidité: 77%
Baromètre: 1025 hPa
Ciel: Clair
Visibilité: Supérieure à 10 km
2018/06/23 02:00 LFBH 230200Z AUTO 06008KT CAVOK 12/08 Q1025 NOSIG
LFBC - Cognac, Charente
Mise à jour: 23/06/2018 02:00
Clair
Clair
 Wind from N
Vent: N 13 km/h
Température: 13°C
Point de rosée: 8°C
Humidité: 72%
Baromètre: 1022 hPa
Ciel: Clair
Visibilité: Supérieure à 10 km
2018/06/23 02:00 LFBC 230200Z AUTO 36007KT CAVOK 13/08 Q1022 NOSIG
 
LFBU - Angoulème, Charente
Mise à jour: 23/06/2018 02:00
Clair
Clair
 Wind from NE
Vent: NE 17 km/h
Température: 13°C
Point de rosée: 7°C
Humidité: 67%
Baromètre: 1023 hPa
Ciel: Clair
Visibilité: Supérieure à 10 km
2018/06/23 02:00 LFBU 230200Z AUTO 04009KT CAVOK 13/07 Q1023
LFRI - La Roche sur Yon, Vendée
Mise à jour: 23/06/2018 02:00
Clair
Clair
 Wind from NNE
Vent: NNE 9 km/h
Température: 11°C
Point de rosée: 8°C
Humidité: 82%
Baromètre: 1026 hPa
Ciel: Clair
Visibilité: Supérieure à 10 km
2018/06/23 02:00 LFRI 230200Z AUTO 03005KT CAVOK 11/08 Q1026
 
LFBI - Poitiers, Vienne
Mise à jour: 23/06/2018 02:00
Clair
Clair
 Wind from ENE
Vent: ENE 17 km/h
Température: 14°C
Point de rosée: 6°C
Humidité: 59%
Baromètre: 1025 hPa
Ciel: Clair
Visibilité: Supérieure à 10 km
2018/06/23 02:00 LFBI 230200Z AUTO 06009KT 030V090 CAVOK 14/06 Q1025 NOSIG
LFRS - Nantes, Loire Atlantique
Mise à jour: 23/06/2018 02:00
Clair
Clair
 Wind from NE
Vent: NE 11 km/h
Température: 15°C
Point de rosée: 9°C
Humidité: 68%
Baromètre: 1026 hPa
Ciel: Clair
Visibilité: Supérieure à 10 km
2018/06/23 02:00 LFRS 230200Z AUTO 05006KT 020V080 CAVOK 15/09 Q1026 NOSIG
 
LFBD - Bordeaux, Gironde
Mise à jour: 23/06/2018 02:00
Clair
Clair
 Wind from NE
Vent: NE 11 km/h
Température: 16°C
Point de rosée: 9°C
Humidité: 63%
Baromètre: 1023 hPa
Ciel: Clair
Visibilité: Supérieure à 10 km
2018/06/23 02:00 LFBD 230200Z AUTO 05006KT 020V080 CAVOK 16/09 Q1023 NOSIG
LFBL - Limoges, Haute Vienne
Mise à jour: 23/06/2018 02:00
Clair
Clair
 Wind from NE
Vent: NE 15 km/h
Température: 13°C
Point de rosée: 6°C
Humidité: 63%
Baromètre: 1024 hPa
Ciel: Clair
Visibilité: Supérieure à 10 km
2018/06/23 02:00 LFBL 230200Z AUTO 05008KT CAVOK 13/06 Q1024 NOSIG